sensor_id;sensor_type;location;lat;lon;timestamp;temperature;humidity
9790;DHT22;4934;50.852;8.098;2023-08-01T00:00:05;16.10;99.90
9790;DHT22;4934;50.852;8.098;2023-08-01T00:02:32;16.10;99.90
9790;DHT22;4934;50.852;8.098;2023-08-01T00:04:58;16.10;99.90
9790;DHT22;4934;50.852;8.098;2023-08-01T00:07:28;16.00;99.90
9790;DHT22;4934;50.852;8.098;2023-08-01T00:09:53;16.10;99.90
9790;DHT22;4934;50.852;8.098;2023-08-01T00:12:19;16.10;99.90
9790;DHT22;4934;50.852;8.098;2023-08-01T00:14:45;16.00;99.90
9790;DHT22;4934;50.852;8.098;2023-08-01T00:17:10;16.00;99.90
9790;DHT22;4934;50.852;8.098;2023-08-01T00:19:36;16.00;99.90
9790;DHT22;4934;50.852;8.098;2023-08-01T00:22:02;16.00;99.90
9790;DHT22;4934;50.852;8.098;2023-08-01T00:24:27;16.10;99.90
9790;DHT22;4934;50.852;8.098;2023-08-01T00:26:53;16.00;99.90
9790;DHT22;4934;50.852;8.098;2023-08-01T00:29:21;16.00;99.90
9790;DHT22;4934;50.852;8.098;2023-08-01T00:31:47;16.10;99.90
9790;DHT22;4934;50.852;8.098;2023-08-01T00:34:12;16.10;99.90
9790;DHT22;4934;50.852;8.098;2023-08-01T00:36:38;16.10;99.90
9790;DHT22;4934;50.852;8.098;2023-08-01T00:39:03;16.10;99.90
9790;DHT22;4934;50.852;8.098;2023-08-01T00:41:29;16.10;99.90
9790;DHT22;4934;50.852;8.098;2023-08-01T00:43:54;16.10;99.90
9790;DHT22;4934;50.852;8.098;2023-08-01T00:46:20;16.10;99.90
9790;DHT22;4934;50.852;8.098;2023-08-01T00:48:46;16.10;99.90
9790;DHT22;4934;50.852;8.098;2023-08-01T00:51:12;16.10;99.90
9790;DHT22;4934;50.852;8.098;2023-08-01T00:53:39;16.20;99.90
9790;DHT22;4934;50.852;8.098;2023-08-01T00:56:05;16.20;99.90
9790;DHT22;4934;50.852;8.098;2023-08-01T00:58:30;16.10;99.90
9790;DHT22;4934;50.852;8.098;2023-08-01T01:00:56;16.10;99.90
9790;DHT22;4934;50.852;8.098;2023-08-01T01:03:22;16.10;99.90
9790;DHT22;4934;50.852;8.098;2023-08-01T01:06:13;16.10;99.90
9790;DHT22;4934;50.852;8.098;2023-08-01T01:08:43;16.10;99.90
9790;DHT22;4934;50.852;8.098;2023-08-01T01:11:09;16.10;99.90
9790;DHT22;4934;50.852;8.098;2023-08-01T01:13:34;16.10;99.90
9790;DHT22;4934;50.852;8.098;2023-08-01T01:16:00;16.10;99.90
9790;DHT22;4934;50.852;8.098;2023-08-01T01:18:25;16.10;99.90
9790;DHT22;4934;50.852;8.098;2023-08-01T01:20:51;16.10;99.90
9790;DHT22;4934;50.852;8.098;2023-08-01T01:23:17;16.20;99.90
9790;DHT22;4934;50.852;8.098;2023-08-01T01:25:45;16.20;99.90
9790;DHT22;4934;50.852;8.098;2023-08-01T01:28:13;16.20;99.90
9790;DHT22;4934;50.852;8.098;2023-08-01T01:30:40;16.20;99.90
9790;DHT22;4934;50.852;8.098;2023-08-01T01:33:07;16.10;99.90
9790;DHT22;4934;50.852;8.098;2023-08-01T01:35:34;16.20;99.90
9790;DHT22;4934;50.852;8.098;2023-08-01T01:38:00;16.20;99.90
9790;DHT22;4934;50.852;8.098;2023-08-01T01:40:30;16.20;99.90
9790;DHT22;4934;50.852;8.098;2023-08-01T01:42:56;16.20;99.90
9790;DHT22;4934;50.852;8.098;2023-08-01T01:45:21;16.20;99.90
9790;DHT22;4934;50.852;8.098;2023-08-01T01:47:47;16.20;99.90
9790;DHT22;4934;50.852;8.098;2023-08-01T01:50:13;16.30;99.90
9790;DHT22;4934;50.852;8.098;2023-08-01T01:52:38;16.20;99.90
9790;DHT22;4934;50.852;8.098;2023-08-01T01:55:04;16.20;99.90
9790;DHT22;4934;50.852;8.098;2023-08-01T01:57:30;16.20;99.90
9790;DHT22;4934;50.852;8.098;2023-08-01T01:59:55;16.20;99.90
9790;DHT22;4934;50.852;8.098;2023-08-01T02:02:21;16.20;99.90
9790;DHT22;4934;50.852;8.098;2023-08-01T02:04:47;16.20;99.90
9790;DHT22;4934;50.852;8.098;2023-08-01T02:07:13;16.20;99.90
9790;DHT22;4934;50.852;8.098;2023-08-01T02:09:40;16.20;99.90
9790;DHT22;4934;50.852;8.098;2023-08-01T02:12:05;16.20;99.90
9790;DHT22;4934;50.852;8.098;2023-08-01T02:14:33;16.20;99.90
9790;DHT22;4934;50.852;8.098;2023-08-01T02:16:59;16.20;99.90
9790;DHT22;4934;50.852;8.098;2023-08-01T02:19:24;16.20;99.90
9790;DHT22;4934;50.852;8.098;2023-08-01T02:21:50;16.20;99.90
9790;DHT22;4934;50.852;8.098;2023-08-01T02:24:15;16.20;99.90
9790;DHT22;4934;50.852;8.098;2023-08-01T02:26:41;16.20;99.90
9790;DHT22;4934;50.852;8.098;2023-08-01T02:29:07;16.20;99.90
9790;DHT22;4934;50.852;8.098;2023-08-01T02:31:32;16.20;99.90
9790;DHT22;4934;50.852;8.098;2023-08-01T02:33:58;16.20;99.90
9790;DHT22;4934;50.852;8.098;2023-08-01T02:36:23;16.30;99.90
9790;DHT22;4934;50.852;8.098;2023-08-01T02:38:49;16.20;99.90
9790;DHT22;4934;50.852;8.098;2023-08-01T02:41:14;16.30;99.90
9790;DHT22;4934;50.852;8.098;2023-08-01T02:43:40;16.30;99.90
9790;DHT22;4934;50.852;8.098;2023-08-01T02:46:06;16.30;99.90
9790;DHT22;4934;50.852;8.098;2023-08-01T02:48:32;16.40;99.90
9790;DHT22;4934;50.852;8.098;2023-08-01T02:50:58;16.30;99.90
9790;DHT22;4934;50.852;8.098;2023-08-01T02:53:23;16.30;99.90
9790;DHT22;4934;50.852;8.098;2023-08-01T02:55:49;16.30;99.90
9790;DHT22;4934;50.852;8.098;2023-08-01T02:58:15;16.30;99.90
9790;DHT22;4934;50.852;8.098;2023-08-01T03:00:41;16.30;99.90
9790;DHT22;4934;50.852;8.098;2023-08-01T03:03:06;16.30;99.90
9790;DHT22;4934;50.852;8.098;2023-08-01T03:05:35;16.30;99.90
9790;DHT22;4934;50.852;8.098;2023-08-01T03:08:00;16.30;99.90
9790;DHT22;4934;50.852;8.098;2023-08-01T03:10:26;16.30;99.90
9790;DHT22;4934;50.852;8.098;2023-08-01T03:12:51;16.30;99.90
9790;DHT22;4934;50.852;8.098;2023-08-01T03:15:17;16.30;99.90
9790;DHT22;4934;50.852;8.098;2023-08-01T03:17:43;16.30;99.90
9790;DHT22;4934;50.852;8.098;2023-08-01T03:20:08;16.30;99.90
9790;DHT22;4934;50.852;8.098;2023-08-01T03:22:38;16.30;99.90
9790;DHT22;4934;50.852;8.098;2023-08-01T03:25:04;16.30;99.90
9790;DHT22;4934;50.852;8.098;2023-08-01T03:27:33;16.40;99.90
9790;DHT22;4934;50.852;8.098;2023-08-01T03:29:59;16.40;99.90
9790;DHT22;4934;50.852;8.098;2023-08-01T03:32:24;16.40;99.90
9790;DHT22;4934;50.852;8.098;2023-08-01T03:34:50;16.40;99.90
9790;DHT22;4934;50.852;8.098;2023-08-01T03:37:16;16.30;99.90
9790;DHT22;4934;50.852;8.098;2023-08-01T03:39:42;16.30;99.90
9790;DHT22;4934;50.852;8.098;2023-08-01T03:42:08;16.40;99.90
9790;DHT22;4934;50.852;8.098;2023-08-01T03:44:33;16.40;99.90
9790;DHT22;4934;50.852;8.098;2023-08-01T03:46:59;16.40;99.90
9790;DHT22;4934;50.852;8.098;2023-08-01T03:49:25;16.40;99.90
9790;DHT22;4934;50.852;8.098;2023-08-01T03:51:50;16.40;99.90
9790;DHT22;4934;50.852;8.098;2023-08-01T03:54:16;16.40;99.90
9790;DHT22;4934;50.852;8.098;2023-08-01T03:56:41;16.40;99.90
9790;DHT22;4934;50.852;8.098;2023-08-01T03:59:10;16.40;99.90
9790;DHT22;4934;50.852;8.098;2023-08-01T04:01:35;16.40;99.90
9790;DHT22;4934;50.852;8.098;2023-08-01T04:04:01;16.40;99.90
9790;DHT22;4934;50.852;8.098;2023-08-01T04:06:27;16.40;99.90
9790;DHT22;4934;50.852;8.098;2023-08-01T04:08:52;16.30;99.90
9790;DHT22;4934;50.852;8.098;2023-08-01T04:11:18;16.30;99.90
9790;DHT22;4934;50.852;8.098;2023-08-01T04:13:43;16.30;99.90
9790;DHT22;4934;50.852;8.098;2023-08-01T04:16:09;16.30;99.90
9790;DHT22;4934;50.852;8.098;2023-08-01T04:18:35;16.30;99.90
9790;DHT22;4934;50.852;8.098;2023-08-01T04:21:00;16.30;99.90
9790;DHT22;4934;50.852;8.098;2023-08-01T04:23:26;16.30;99.90
9790;DHT22;4934;50.852;8.098;2023-08-01T04:25:51;16.20;99.90
9790;DHT22;4934;50.852;8.098;2023-08-01T04:28:17;16.10;99.90
9790;DHT22;4934;50.852;8.098;2023-08-01T04:30:49;15.90;99.90
9790;DHT22;4934;50.852;8.098;2023-08-01T04:33:14;15.70;99.90
9790;DHT22;4934;50.852;8.098;2023-08-01T04:35:40;15.60;99.90
9790;DHT22;4934;50.852;8.098;2023-08-01T04:38:05;15.30;99.90
9790;DHT22;4934;50.852;8.098;2023-08-01T04:40:31;15.30;99.90
9790;DHT22;4934;50.852;8.098;2023-08-01T04:42:56;15.40;99.90
9790;DHT22;4934;50.852;8.098;2023-08-01T04:45:22;15.40;99.90
9790;DHT22;4934;50.852;8.098;2023-08-01T04:47:47;15.40;99.90
9790;DHT22;4934;50.852;8.098;2023-08-01T04:50:13;15.40;99.90
9790;DHT22;4934;50.852;8.098;2023-08-01T04:52:38;15.40;99.90
9790;DHT22;4934;50.852;8.098;2023-08-01T04:55:04;15.40;99.90
9790;DHT22;4934;50.852;8.098;2023-08-01T04:57:30;15.40;99.90
9790;DHT22;4934;50.852;8.098;2023-08-01T04:59:56;15.40;99.90
9790;DHT22;4934;50.852;8.098;2023-08-01T05:02:21;15.30;99.90
9790;DHT22;4934;50.852;8.098;2023-08-01T05:04:47;15.30;99.90
9790;DHT22;4934;50.852;8.098;2023-08-01T05:07:12;15.40;99.90
9790;DHT22;4934;50.852;8.098;2023-08-01T05:09:38;15.40;99.90
9790;DHT22;4934;50.852;8.098;2023-08-01T05:12:04;15.40;99.90
9790;DHT22;4934;50.852;8.098;2023-08-01T05:14:29;15.40;99.90
9790;DHT22;4934;50.852;8.098;2023-08-01T05:16:55;15.40;99.90
9790;DHT22;4934;50.852;8.098;2023-08-01T05:19:21;15.40;99.90
9790;DHT22;4934;50.852;8.098;2023-08-01T05:21:46;15.40;99.90
9790;DHT22;4934;50.852;8.098;2023-08-01T05:24:12;15.40;99.90
9790;DHT22;4934;50.852;8.098;2023-08-01T05:26:37;15.30;99.90
9790;DHT22;4934;50.852;8.098;2023-08-01T05:29:03;15.40;99.90
9790;DHT22;4934;50.852;8.098;2023-08-01T05:31:29;15.30;99.90
9790;DHT22;4934;50.852;8.098;2023-08-01T05:33:54;15.40;99.90
9790;DHT22;4934;50.852;8.098;2023-08-01T05:36:20;15.20;99.90
9790;DHT22;4934;50.852;8.098;2023-08-01T05:38:45;15.20;99.90
9790;DHT22;4934;50.852;8.098;2023-08-01T05:41:11;15.20;99.90
9790;DHT22;4934;50.852;8.098;2023-08-01T05:43:36;15.20;99.90
9790;DHT22;4934;50.852;8.098;2023-08-01T05:46:02;15.20;99.90
9790;DHT22;4934;50.852;8.098;2023-08-01T05:48:28;15.20;99.90
9790;DHT22;4934;50.852;8.098;2023-08-01T05:50:53;15.20;99.90
9790;DHT22;4934;50.852;8.098;2023-08-01T05:53:21;15.20;99.90
9790;DHT22;4934;50.852;8.098;2023-08-01T05:55:46;15.30;99.90
9790;DHT22;4934;50.852;8.098;2023-08-01T05:58:12;15.20;99.90
9790;DHT22;4934;50.852;8.098;2023-08-01T06:00:38;15.30;99.90
9790;DHT22;4934;50.852;8.098;2023-08-01T06:03:03;15.20;99.90
9790;DHT22;4934;50.852;8.098;2023-08-01T06:05:30;15.30;99.90
9790;DHT22;4934;50.852;8.098;2023-08-01T06:07:55;15.30;99.90
9790;DHT22;4934;50.852;8.098;2023-08-01T06:10:21;15.30;99.90
9790;DHT22;4934;50.852;8.098;2023-08-01T06:12:47;15.20;99.90
9790;DHT22;4934;50.852;8.098;2023-08-01T06:15:13;15.20;99.90
9790;DHT22;4934;50.852;8.098;2023-08-01T06:17:38;15.20;99.90
9790;DHT22;4934;50.852;8.098;2023-08-01T06:20:04;15.20;99.90
9790;DHT22;4934;50.852;8.098;2023-08-01T06:22:31;15.20;99.90
9790;DHT22;4934;50.852;8.098;2023-08-01T06:24:56;15.20;99.90
9790;DHT22;4934;50.852;8.098;2023-08-01T06:27:22;15.20;99.90
9790;DHT22;4934;50.852;8.098;2023-08-01T06:29:47;15.10;99.90
9790;DHT22;4934;50.852;8.098;2023-08-01T06:32:13;15.10;99.90
9790;DHT22;4934;50.852;8.098;2023-08-01T06:34:38;15.10;99.90
9790;DHT22;4934;50.852;8.098;2023-08-01T06:37:04;15.10;99.90
9790;DHT22;4934;50.852;8.098;2023-08-01T06:39:30;15.20;99.90
9790;DHT22;4934;50.852;8.098;2023-08-01T06:41:55;15.20;99.90
9790;DHT22;4934;50.852;8.098;2023-08-01T06:44:21;15.20;99.90
9790;DHT22;4934;50.852;8.098;2023-08-01T06:46:47;15.20;99.90
9790;DHT22;4934;50.852;8.098;2023-08-01T06:49:13;15.10;99.90
9790;DHT22;4934;50.852;8.098;2023-08-01T06:51:39;15.10;99.90
9790;DHT22;4934;50.852;8.098;2023-08-01T06:54:04;15.10;99.90
9790;DHT22;4934;50.852;8.098;2023-08-01T06:56:30;15.10;99.90
9790;DHT22;4934;50.852;8.098;2023-08-01T06:58:55;15.10;99.90
9790;DHT22;4934;50.852;8.098;2023-08-01T07:01:21;15.10;99.90
9790;DHT22;4934;50.852;8.098;2023-08-01T07:03:47;15.20;99.90
9790;DHT22;4934;50.852;8.098;2023-08-01T07:06:13;15.30;99.90
9790;DHT22;4934;50.852;8.098;2023-08-01T07:08:39;15.40;99.90
9790;DHT22;4934;50.852;8.098;2023-08-01T07:11:04;15.70;99.90
9790;DHT22;4934;50.852;8.098;2023-08-01T07:13:30;15.80;99.90
9790;DHT22;4934;50.852;8.098;2023-08-01T07:15:55;15.90;99.90
9790;DHT22;4934;50.852;8.098;2023-08-01T07:18:21;16.00;99.90
9790;DHT22;4934;50.852;8.098;2023-08-01T07:20:46;16.10;99.90
9790;DHT22;4934;50.852;8.098;2023-08-01T07:23:12;16.20;99.90
9790;DHT22;4934;50.852;8.098;2023-08-01T07:25:38;16.30;99.90
9790;DHT22;4934;50.852;8.098;2023-08-01T07:28:03;16.10;99.90
9790;DHT22;4934;50.852;8.098;2023-08-01T07:30:29;16.30;99.90
9790;DHT22;4934;50.852;8.098;2023-08-01T07:32:55;16.20;99.90
9790;DHT22;4934;50.852;8.098;2023-08-01T07:35:20;16.30;99.90
9790;DHT22;4934;50.852;8.098;2023-08-01T07:37:46;16.30;99.90
9790;DHT22;4934;50.852;8.098;2023-08-01T07:40:11;16.30;99.90
9790;DHT22;4934;50.852;8.098;2023-08-01T07:42:37;16.30;99.90
9790;DHT22;4934;50.852;8.098;2023-08-01T07:45:03;16.20;99.90
9790;DHT22;4934;50.852;8.098;2023-08-01T07:47:28;16.30;99.90
9790;DHT22;4934;50.852;8.098;2023-08-01T07:49:54;16.30;99.90
9790;DHT22;4934;50.852;8.098;2023-08-01T07:52:19;16.40;99.90
9790;DHT22;4934;50.852;8.098;2023-08-01T07:54:45;16.40;99.90
9790;DHT22;4934;50.852;8.098;2023-08-01T07:57:11;16.40;99.90
9790;DHT22;4934;50.852;8.098;2023-08-01T07:59:36;16.50;99.90
9790;DHT22;4934;50.852;8.098;2023-08-01T08:02:02;16.60;99.90
9790;DHT22;4934;50.852;8.098;2023-08-01T08:04:28;16.80;99.90
9790;DHT22;4934;50.852;8.098;2023-08-01T08:06:54;16.90;99.90
9790;DHT22;4934;50.852;8.098;2023-08-01T08:09:20;17.00;99.90
9790;DHT22;4934;50.852;8.098;2023-08-01T08:11:48;17.20;99.90
9790;DHT22;4934;50.852;8.098;2023-08-01T08:14:13;17.40;99.90
9790;DHT22;4934;50.852;8.098;2023-08-01T08:16:40;17.50;99.90
9790;DHT22;4934;50.852;8.098;2023-08-01T08:19:06;17.10;99.90
9790;DHT22;4934;50.852;8.098;2023-08-01T08:21:32;17.30;99.90
9790;DHT22;4934;50.852;8.098;2023-08-01T08:23:57;17.30;99.90
9790;DHT22;4934;50.852;8.098;2023-08-01T08:26:23;17.40;99.90
9790;DHT22;4934;50.852;8.098;2023-08-01T08:28:49;17.70;99.90
9790;DHT22;4934;50.852;8.098;2023-08-01T08:31:14;17.80;99.90
9790;DHT22;4934;50.852;8.098;2023-08-01T08:33:40;17.70;99.90
9790;DHT22;4934;50.852;8.098;2023-08-01T08:36:06;17.70;99.90
9790;DHT22;4934;50.852;8.098;2023-08-01T08:38:31;17.60;99.90
9790;DHT22;4934;50.852;8.098;2023-08-01T08:43:32;17.30;99.90
9790;DHT22;4934;50.852;8.098;2023-08-01T08:46:01;17.30;99.90
9790;DHT22;4934;50.852;8.098;2023-08-01T08:48:26;17.30;99.90
9790;DHT22;4934;50.852;8.098;2023-08-01T08:50:54;17.50;99.90
9790;DHT22;4934;50.852;8.098;2023-08-01T08:53:22;17.70;99.90
9790;DHT22;4934;50.852;8.098;2023-08-01T08:55:48;17.60;99.90
9790;DHT22;4934;50.852;8.098;2023-08-01T08:58:15;17.50;99.90
9790;DHT22;4934;50.852;8.098;2023-08-01T09:00:41;17.10;99.90
9790;DHT22;4934;50.852;8.098;2023-08-01T09:03:07;16.90;99.90
9790;DHT22;4934;50.852;8.098;2023-08-01T09:06:09;16.80;99.90
9790;DHT22;4934;50.852;8.098;2023-08-01T09:08:39;16.70;99.90
9790;DHT22;4934;50.852;8.098;2023-08-01T09:11:05;16.60;99.90
9790;DHT22;4934;50.852;8.098;2023-08-01T09:13:31;16.80;99.90
9790;DHT22;4934;50.852;8.098;2023-08-01T09:15:57;17.10;99.90
9790;DHT22;4934;50.852;8.098;2023-08-01T09:18:23;17.30;99.90
9790;DHT22;4934;50.852;8.098;2023-08-01T09:20:49;17.20;99.90
9790;DHT22;4934;50.852;8.098;2023-08-01T09:23:16;17.60;99.90
9790;DHT22;4934;50.852;8.098;2023-08-01T09:25:43;17.80;99.90
9790;DHT22;4934;50.852;8.098;2023-08-01T09:28:19;17.90;99.90
9790;DHT22;4934;50.852;8.098;2023-08-01T09:30:46;18.00;99.90
9790;DHT22;4934;50.852;8.098;2023-08-01T09:33:12;17.70;99.90
9790;DHT22;4934;50.852;8.098;2023-08-01T09:35:38;17.70;99.90
9790;DHT22;4934;50.852;8.098;2023-08-01T09:38:04;17.60;99.90
9790;DHT22;4934;50.852;8.098;2023-08-01T09:40:37;17.70;99.90
9790;DHT22;4934;50.852;8.098;2023-08-01T09:43:03;17.70;99.90
9790;DHT22;4934;50.852;8.098;2023-08-01T09:45:29;17.50;99.90
9790;DHT22;4934;50.852;8.098;2023-08-01T09:47:54;17.40;99.90
9790;DHT22;4934;50.852;8.098;2023-08-01T09:50:22;17.50;99.90
9790;DHT22;4934;50.852;8.098;2023-08-01T09:52:48;17.50;99.90
9790;DHT22;4934;50.852;8.098;2023-08-01T09:55:34;17.40;99.90
9790;DHT22;4934;50.852;8.098;2023-08-01T09:58:00;17.50;99.90
9790;DHT22;4934;50.852;8.098;2023-08-01T10:00:27;17.50;99.90
9790;DHT22;4934;50.852;8.098;2023-08-01T10:02:58;17.60;99.90
9790;DHT22;4934;50.852;8.098;2023-08-01T10:05:30;17.90;99.90
9790;DHT22;4934;50.852;8.098;2023-08-01T10:07:59;18.10;99.90
9790;DHT22;4934;50.852;8.098;2023-08-01T10:10:24;18.00;99.90
9790;DHT22;4934;50.852;8.098;2023-08-01T10:12:50;18.00;99.90
9790;DHT22;4934;50.852;8.098;2023-08-01T10:15:17;18.10;99.90
9790;DHT22;4934;50.852;8.098;2023-08-01T10:17:43;18.20;99.90
9790;DHT22;4934;50.852;8.098;2023-08-01T10:20:10;18.40;99.90
9790;DHT22;4934;50.852;8.098;2023-08-01T10:22:38;18.50;99.90
9790;DHT22;4934;50.852;8.098;2023-08-01T10:25:05;18.60;99.90
9790;DHT22;4934;50.852;8.098;2023-08-01T10:27:31;18.80;99.90
9790;DHT22;4934;50.852;8.098;2023-08-01T10:30:00;19.00;99.90
9790;DHT22;4934;50.852;8.098;2023-08-01T10:32:34;19.00;99.90
9790;DHT22;4934;50.852;8.098;2023-08-01T10:35:01;19.00;99.90
9790;DHT22;4934;50.852;8.098;2023-08-01T10:37:27;19.30;99.90
9790;DHT22;4934;50.852;8.098;2023-08-01T10:40:04;19.40;99.90
9790;DHT22;4934;50.852;8.098;2023-08-01T10:42:42;19.10;99.90
9790;DHT22;4934;50.852;8.098;2023-08-01T10:45:20;18.90;99.90
9790;DHT22;4934;50.852;8.098;2023-08-01T10:47:47;18.70;99.90
9790;DHT22;4934;50.852;8.098;2023-08-01T10:50:14;18.70;99.90
9790;DHT22;4934;50.852;8.098;2023-08-01T10:52:41;18.50;99.90
9790;DHT22;4934;50.852;8.098;2023-08-01T10:55:07;18.60;99.90
9790;DHT22;4934;50.852;8.098;2023-08-01T10:57:39;18.50;99.90
9790;DHT22;4934;50.852;8.098;2023-08-01T11:00:05;18.70;99.90
9790;DHT22;4934;50.852;8.098;2023-08-01T11:02:35;18.70;99.90
9790;DHT22;4934;50.852;8.098;2023-08-01T11:05:03;19.00;99.90
9790;DHT22;4934;50.852;8.098;2023-08-01T11:07:29;18.90;99.90
9790;DHT22;4934;50.852;8.098;2023-08-01T11:10:13;18.90;99.90
9790;DHT22;4934;50.852;8.098;2023-08-01T11:12:43;19.20;99.90
9790;DHT22;4934;50.852;8.098;2023-08-01T11:15:13;19.40;99.90
9790;DHT22;4934;50.852;8.098;2023-08-01T11:17:41;19.30;99.90
9790;DHT22;4934;50.852;8.098;2023-08-01T11:20:09;19.30;99.90
9790;DHT22;4934;50.852;8.098;2023-08-01T11:22:36;19.20;99.90
9790;DHT22;4934;50.852;8.098;2023-08-01T11:25:02;19.30;99.90
9790;DHT22;4934;50.852;8.098;2023-08-01T11:27:28;19.40;99.90
9790;DHT22;4934;50.852;8.098;2023-08-01T11:29:54;19.70;99.90
9790;DHT22;4934;50.852;8.098;2023-08-01T11:32:20;19.90;99.90
9790;DHT22;4934;50.852;8.098;2023-08-01T11:34:46;19.80;99.90
9790;DHT22;4934;50.852;8.098;2023-08-01T11:37:17;19.80;99.90
9790;DHT22;4934;50.852;8.098;2023-08-01T11:39:44;19.80;99.90
9790;DHT22;4934;50.852;8.098;2023-08-01T11:42:15;19.90;99.90
9790;DHT22;4934;50.852;8.098;2023-08-01T11:44:41;19.90;99.90
9790;DHT22;4934;50.852;8.098;2023-08-01T11:47:13;20.10;99.90
9790;DHT22;4934;50.852;8.098;2023-08-01T11:49:45;20.00;99.90
9790;DHT22;4934;50.852;8.098;2023-08-01T11:52:10;20.20;99.90
9790;DHT22;4934;50.852;8.098;2023-08-01T11:54:45;20.30;99.90
9790;DHT22;4934;50.852;8.098;2023-08-01T11:57:11;20.20;99.90
9790;DHT22;4934;50.852;8.098;2023-08-01T11:59:49;20.40;99.90
9790;DHT22;4934;50.852;8.098;2023-08-01T12:02:22;20.20;99.90
9790;DHT22;4934;50.852;8.098;2023-08-01T12:04:48;19.60;99.90
9790;DHT22;4934;50.852;8.098;2023-08-01T12:07:14;19.50;99.90
9790;DHT22;4934;50.852;8.098;2023-08-01T12:09:41;19.30;99.90
9790;DHT22;4934;50.852;8.098;2023-08-01T12:12:09;19.20;99.90
9790;DHT22;4934;50.852;8.098;2023-08-01T12:14:39;19.40;99.90
9790;DHT22;4934;50.852;8.098;2023-08-01T12:17:05;19.60;99.90
9790;DHT22;4934;50.852;8.098;2023-08-01T12:19:31;19.80;99.90
9790;DHT22;4934;50.852;8.098;2023-08-01T12:21:59;20.10;99.90
9790;DHT22;4934;50.852;8.098;2023-08-01T12:24:24;20.00;99.90
9790;DHT22;4934;50.852;8.098;2023-08-01T12:26:50;20.10;99.90
9790;DHT22;4934;50.852;8.098;2023-08-01T12:29:15;20.10;99.90
9790;DHT22;4934;50.852;8.098;2023-08-01T12:31:41;20.20;99.90
9790;DHT22;4934;50.852;8.098;2023-08-01T12:34:07;20.30;99.90
9790;DHT22;4934;50.852;8.098;2023-08-01T12:36:32;20.50;99.90
9790;DHT22;4934;50.852;8.098;2023-08-01T12:38:58;20.70;99.90
9790;DHT22;4934;50.852;8.098;2023-08-01T12:41:23;20.60;99.90
9790;DHT22;4934;50.852;8.098;2023-08-01T12:43:50;20.80;99.90
9790;DHT22;4934;50.852;8.098;2023-08-01T12:46:15;20.90;99.90
9790;DHT22;4934;50.852;8.098;2023-08-01T12:48:41;20.90;99.90
9790;DHT22;4934;50.852;8.098;2023-08-01T12:51:07;20.90;99.90
9790;DHT22;4934;50.852;8.098;2023-08-01T12:53:33;21.00;99.90
9790;DHT22;4934;50.852;8.098;2023-08-01T12:55:59;21.00;99.90
9790;DHT22;4934;50.852;8.098;2023-08-01T12:58:24;21.10;99.90
9790;DHT22;4934;50.852;8.098;2023-08-01T13:00:50;20.70;99.90
9790;DHT22;4934;50.852;8.098;2023-08-01T13:03:15;20.90;99.90
9790;DHT22;4934;50.852;8.098;2023-08-01T13:05:42;20.90;99.90
9790;DHT22;4934;50.852;8.098;2023-08-01T13:08:08;20.70;99.90
9790;DHT22;4934;50.852;8.098;2023-08-01T13:10:35;20.60;99.90
9790;DHT22;4934;50.852;8.098;2023-08-01T13:13:02;20.20;99.90
9790;DHT22;4934;50.852;8.098;2023-08-01T13:15:30;20.40;99.90
9790;DHT22;4934;50.852;8.098;2023-08-01T13:17:56;20.70;99.90
9790;DHT22;4934;50.852;8.098;2023-08-01T13:20:21;20.80;99.90
9790;DHT22;4934;50.852;8.098;2023-08-01T13:22:49;20.70;99.90
9790;DHT22;4934;50.852;8.098;2023-08-01T13:25:15;21.00;99.90
9790;DHT22;4934;50.852;8.098;2023-08-01T13:27:41;20.90;99.90
9790;DHT22;4934;50.852;8.098;2023-08-01T13:30:07;21.00;99.90
9790;DHT22;4934;50.852;8.098;2023-08-01T13:32:33;21.00;99.90
9790;DHT22;4934;50.852;8.098;2023-08-01T13:34:59;20.90;99.90
9790;DHT22;4934;50.852;8.098;2023-08-01T13:37:25;21.10;99.90
9790;DHT22;4934;50.852;8.098;2023-08-01T13:39:50;21.40;99.90
9790;DHT22;4934;50.852;8.098;2023-08-01T13:42:16;21.90;99.90
9790;DHT22;4934;50.852;8.098;2023-08-01T13:44:41;22.00;99.90
9790;DHT22;4934;50.852;8.098;2023-08-01T13:47:07;21.90;99.90
9790;DHT22;4934;50.852;8.098;2023-08-01T13:49:33;21.70;99.90
9790;DHT22;4934;50.852;8.098;2023-08-01T13:51:59;21.60;99.90
9790;DHT22;4934;50.852;8.098;2023-08-01T13:54:25;21.50;99.90
9790;DHT22;4934;50.852;8.098;2023-08-01T13:56:51;21.10;99.90
9790;DHT22;4934;50.852;8.098;2023-08-01T13:59:19;21.00;99.90
9790;DHT22;4934;50.852;8.098;2023-08-01T14:01:46;20.80;99.90
9790;DHT22;4934;50.852;8.098;2023-08-01T14:04:11;20.60;99.90
9790;DHT22;4934;50.852;8.098;2023-08-01T14:06:40;20.50;99.90
9790;DHT22;4934;50.852;8.098;2023-08-01T14:09:07;20.70;99.90
9790;DHT22;4934;50.852;8.098;2023-08-01T14:11:34;20.80;99.90
9790;DHT22;4934;50.852;8.098;2023-08-01T14:14:00;20.70;99.90
9790;DHT22;4934;50.852;8.098;2023-08-01T14:16:25;20.30;99.90
9790;DHT22;4934;50.852;8.098;2023-08-01T14:18:51;20.00;99.90
9790;DHT22;4934;50.852;8.098;2023-08-01T14:21:16;19.90;99.90
9790;DHT22;4934;50.852;8.098;2023-08-01T14:23:42;19.80;99.90
9790;DHT22;4934;50.852;8.098;2023-08-01T14:26:08;19.80;99.90
9790;DHT22;4934;50.852;8.098;2023-08-01T14:28:33;19.60;99.90
9790;DHT22;4934;50.852;8.098;2023-08-01T14:31:03;19.20;99.90
9790;DHT22;4934;50.852;8.098;2023-08-01T14:33:29;18.90;99.90
9790;DHT22;4934;50.852;8.098;2023-08-01T14:35:55;18.10;99.90
9790;DHT22;4934;50.852;8.098;2023-08-01T14:38:21;17.70;99.90
9790;DHT22;4934;50.852;8.098;2023-08-01T14:40:47;17.80;99.90
9790;DHT22;4934;50.852;8.098;2023-08-01T14:43:13;17.90;99.90
9790;DHT22;4934;50.852;8.098;2023-08-01T14:45:39;17.70;99.90
9790;DHT22;4934;50.852;8.098;2023-08-01T14:48:06;17.50;99.90
9790;DHT22;4934;50.852;8.098;2023-08-01T14:50:32;17.50;99.90
9790;DHT22;4934;50.852;8.098;2023-08-01T14:52:57;17.30;99.90
9790;DHT22;4934;50.852;8.098;2023-08-01T14:55:23;17.20;99.90
9790;DHT22;4934;50.852;8.098;2023-08-01T14:57:48;17.00;99.90
9790;DHT22;4934;50.852;8.098;2023-08-01T15:00:15;17.10;99.90
9790;DHT22;4934;50.852;8.098;2023-08-01T15:02:41;17.20;99.90
9790;DHT22;4934;50.852;8.098;2023-08-01T15:05:07;17.40;99.90
9790;DHT22;4934;50.852;8.098;2023-08-01T15:07:32;17.60;99.90
9790;DHT22;4934;50.852;8.098;2023-08-01T15:09:58;17.60;99.90
9790;DHT22;4934;50.852;8.098;2023-08-01T15:12:24;17.50;99.90
9790;DHT22;4934;50.852;8.098;2023-08-01T15:14:54;17.30;99.90
9790;DHT22;4934;50.852;8.098;2023-08-01T15:17:20;17.30;99.90
9790;DHT22;4934;50.852;8.098;2023-08-01T15:19:45;17.20;99.90
9790;DHT22;4934;50.852;8.098;2023-08-01T15:22:13;17.20;99.90
9790;DHT22;4934;50.852;8.098;2023-08-01T15:24:39;17.40;99.90
9790;DHT22;4934;50.852;8.098;2023-08-01T15:27:06;17.40;99.90
9790;DHT22;4934;50.852;8.098;2023-08-01T15:29:32;17.50;99.90
9790;DHT22;4934;50.852;8.098;2023-08-01T15:31:57;17.30;99.90
9790;DHT22;4934;50.852;8.098;2023-08-01T15:34:23;17.10;99.90
9790;DHT22;4934;50.852;8.098;2023-08-01T15:36:48;17.30;99.90
9790;DHT22;4934;50.852;8.098;2023-08-01T15:39:14;17.50;99.90
9790;DHT22;4934;50.852;8.098;2023-08-01T15:41:40;17.50;99.90
9790;DHT22;4934;50.852;8.098;2023-08-01T15:44:06;17.70;99.90
9790;DHT22;4934;50.852;8.098;2023-08-01T15:46:35;17.90;99.90
9790;DHT22;4934;50.852;8.098;2023-08-01T15:49:01;18.00;99.90
9790;DHT22;4934;50.852;8.098;2023-08-01T15:51:28;18.10;99.90
9790;DHT22;4934;50.852;8.098;2023-08-01T15:53:54;18.20;99.90
9790;DHT22;4934;50.852;8.098;2023-08-01T15:56:20;18.20;99.90
9790;DHT22;4934;50.852;8.098;2023-08-01T15:58:45;18.30;99.90